Time;durP1;ratioP1;P1;durP2;ratioP2;P2;SDS_P1;SDS_P2;PMS_P1;PMS_P2;Temp;Humidity;BMP_temperature;BMP_pressure;BME280_temperature;BME280_humidity;BME280_pressure;Samples;Min_cycle;Max_cycle;Signal;HPM_P1;HPM_P2
2022/08/05 00:00:48;;;;;;;5.38;3.30;;;24.20;49.20;;;;;;5042864;28;20025;-48
2022/08/05 00:03:14;;;;;;;4.25;2.78;;;24.20;49.50;;;;;;5043885;28;20048;-50
2022/08/05 00:05:42;;;;;;;5.15;2.95;;;24.20;49.70;;;;;;5041313;28;20025;-48
2022/08/05 00:08:08;;;;;;;6.28;2.67;;;24.20;49.70;;;;;;5042702;28;20017;-47
2022/08/05 00:10:33;;;;;;;4.82;3.20;;;24.20;49.70;;;;;;5043751;28;20091;-49
2022/08/05 00:12:59;;;;;;;4.65;3.03;;;24.20;49.40;;;;;;5043491;28;20625;-50
2022/08/05 00:15:25;;;;;;;4.53;2.80;;;24.20;50.00;;;;;;5043228;28;20041;-48
2022/08/05 00:17:50;;;;;;;5.55;3.28;;;24.20;49.90;;;;;;5040166;28;20366;-49
2022/08/05 00:20:16;;;;;;;4.88;2.95;;;24.10;49.90;;;;;;5042592;28;20682;-48
2022/08/05 00:22:42;;;;;;;4.40;3.10;;;24.10;49.70;;;;;;5043346;28;20790;-49
2022/08/05 00:25:07;;;;;;;4.45;2.70;;;24.10;49.50;;;;;;5043023;28;20056;-48
2022/08/05 00:27:33;;;;;;;6.43;3.35;;;24.10;49.70;;;;;;5043125;28;20024;-49
2022/08/05 00:29:59;;;;;;;4.45;3.00;;;24.10;49.70;;;;;;5043088;28;20032;-47
2022/08/05 00:32:24;;;;;;;4.40;2.85;;;24.10;49.90;;;;;;5043538;28;20051;-49
2022/08/05 00:34:50;;;;;;;3.85;2.72;;;24.00;49.90;;;;;;5041194;28;20056;-49
2022/08/05 00:37:16;;;;;;;4.97;3.15;;;24.00;50.40;;;;;;5041762;28;20051;-48
2022/08/05 00:39:41;;;;;;;4.82;2.90;;;24.00;49.90;;;;;;5042730;28;20044;-47
2022/08/05 00:42:07;;;;;;;3.88;2.70;;;24.00;50.00;;;;;;5043160;28;20103;-47
2022/08/05 00:44:33;;;;;;;4.97;2.72;;;24.00;49.70;;;;;;5043136;28;20024;-47
2022/08/05 00:46:59;;;;;;;5.28;3.15;;;24.00;49.90;;;;;;5041455;28;20021;-49
2022/08/05 00:49:24;;;;;;;6.07;3.47;;;24.00;50.10;;;;;;5043116;28;20660;-49
2022/08/05 00:51:50;;;;;;;5.32;2.72;;;24.00;50.00;;;;;;5039327;28;20033;-49
2022/08/05 00:54:16;;;;;;;6.93;3.28;;;24.00;49.80;;;;;;5043142;28;20032;-48
2022/08/05 00:56:41;;;;;;;5.05;2.72;;;24.00;49.70;;;;;;5042590;28;20108;-48
2022/08/05 00:59:07;;;;;;;5.22;3.30;;;24.00;49.80;;;;;;5042768;28;20098;-50
2022/08/05 01:01:33;;;;;;;4.55;2.80;;;23.90;50.00;;;;;;5043171;28;20017;-49
2022/08/05 01:03:59;;;;;;;6.45;3.08;;;23.90;50.20;;;;;;5041163;28;20009;-48
2022/08/05 01:06:24;;;;;;;6.43;3.17;;;23.90;50.30;;;;;;5040918;28;20711;-48
2022/08/05 01:08:50;;;;;;;3.90;2.72;;;23.90;50.10;;;;;;5042927;28;20146;-49
2022/08/05 01:11:25;;;;;;;5.20;3.00;;;23.90;50.00;;;;;;5042446;28;20036;-50
2022/08/05 01:14:28;;;;;;;6.00;3.65;;;23.90;50.00;;;;;;5042068;28;20060;-47
2022/08/05 01:17:04;;;;;;;6.60;3.33;;;23.90;50.40;;;;;;5041672;28;20111;-49
2022/08/05 01:19:29;;;;;;;4.22;2.88;;;23.80;50.50;;;;;;5042286;28;20025;-49
2022/08/05 01:22:10;;;;;;;4.75;3.03;;;23.80;50.10;;;;;;5041051;28;20025;-52
2022/08/05 01:24:58;;;;;;;4.45;3.00;;;23.70;50.50;;;;;;5041684;28;20734;-47
2022/08/05 01:27:27;;;;;;;5.78;3.28;;;23.70;50.30;;;;;;5041314;28;20032;-49
2022/08/05 01:29:57;;;;;;;5.07;3.05;;;23.70;50.20;;;;;;5042523;28;20537;-49
2022/08/05 01:32:26;;;;;;;5.13;3.28;;;23.70;50.60;;;;;;5042137;28;20033;-47
2022/08/05 01:35:07;;;;;;;4.43;2.97;;;23.70;50.40;;;;;;5039009;28;20021;-47
2022/08/05 01:37:42;;;;;;;3.85;2.75;;;23.70;50.20;;;;;;5040918;28;20056;-46
2022/08/05 01:40:09;;;;;;;6.00;2.95;;;23.70;50.40;;;;;;5041049;28;20096;-50
2022/08/05 01:42:36;;;;;;;4.03;3.00;;;23.70;50.40;;;;;;5041483;28;20021;-48
2022/08/05 01:45:04;;;;;;;4.88;2.90;;;23.70;50.90;;;;;;5040056;28;20017;-48
2022/08/05 01:47:33;;;;;;;4.82;2.78;;;23.70;50.80;;;;;;5041214;28;20025;-48
2022/08/05 01:50:01;;;;;;;5.47;3.17;;;23.70;50.70;;;;;;5040557;28;20021;-49
2022/08/05 01:52:29;;;;;;;4.47;2.78;;;23.70;50.60;;;;;;5041935;28;20014;-49
2022/08/05 01:55:00;;;;;;;4.65;3.60;;;23.70;50.80;;;;;;5039007;28;20082;-48
2022/08/05 01:57:31;;;;;;;5.10;3.00;;;23.70;50.80;;;;;;5042499;28;20036;-47
2022/08/05 02:00:03;;;;;;;4.95;2.90;;;23.70;50.70;;;;;;5040506;28;20524;-49
2022/08/05 02:02:31;;;;;;;5.47;3.70;;;23.70;51.10;;;;;;5042135;28;20025;-50
2022/08/05 02:05:00;;;;;;;5.05;3.30;;;23.70;50.70;;;;;;5041157;28;20025;-47
2022/08/05 02:07:26;;;;;;;4.15;3.05;;;23.70;50.70;;;;;;5040081;28;20021;-49
2022/08/05 02:09:52;;;;;;;5.20;3.58;;;23.70;50.50;;;;;;5042018;28;20460;-50
2022/08/05 02:12:24;;;;;;;5.10;3.28;;;23.70;50.00;;;;;;5041763;28;20033;-50
2022/08/05 02:15:04;;;;;;;4.32;3.10;;;23.60;50.30;;;;;;5040778;28;20032;-49
2022/08/05 02:17:40;;;;;;;4.85;3.33;;;23.60;50.50;;;;;;5041294;28;20029;-50
2022/08/05 02:20:13;;;;;;;5.13;3.10;;;23.60;50.40;;;;;;5040739;28;20056;-46
2022/08/05 02:22:43;;;;;;;6.20;3.00;;;23.60;50.60;;;;;;5041243;28;20445;-46
2022/08/05 02:25:17;;;;;;;6.63;3.88;;;23.60;50.40;;;;;;5045375;28;20641;-46
2022/08/05 02:27:47;;;;;;;4.38;3.28;;;23.70;50.40;;;;;;5044614;28;20068;-46
2022/08/05 02:30:17;;;;;;;5.55;3.38;;;23.60;50.20;;;;;;5044748;28;20405;-46
2022/08/05 02:32:49;;;;;;;5.63;3.50;;;23.70;50.20;;;;;;5044824;28;20079;-47
2022/08/05 02:35:19;;;;;;;5.03;3.28;;;23.60;50.10;;;;;;5040207;28;20036;-46
2022/08/05 02:37:46;;;;;;;4.25;2.97;;;23.60;50.10;;;;;;5045673;28;20028;-46
2022/08/05 02:40:14;;;;;;;4.13;3.25;;;23.70;50.00;;;;;;5044032;28;20028;-51
2022/08/05 02:42:41;;;;;;;4.25;2.90;;;23.70;49.90;;;;;;5044671;28;20048;-46
2022/08/05 02:45:09;;;;;;;4.70;3.08;;;23.70;50.10;;;;;;5045185;28;20049;-47
2022/08/05 02:47:36;;;;;;;5.63;3.28;;;23.70;49.90;;;;;;5045896;28;20055;-46
2022/08/05 02:50:03;;;;;;;4.57;3.20;;;23.70;49.50;;;;;;5044683;28;20029;-46
2022/08/05 02:52:30;;;;;;;5.85;3.03;;;23.60;49.70;;;;;;5045025;28;20028;-46
2022/08/05 02:54:58;;;;;;;5.13;3.17;;;23.70;49.80;;;;;;5043929;28;20025;-47
2022/08/05 02:57:25;;;;;;;7.07;3.35;;;23.60;49.70;;;;;;5042421;28;20025;-47
2022/08/05 02:59:50;;;;;;;4.95;2.90;;;23.60;49.60;;;;;;5045153;28;20033;-46
2022/08/05 03:02:19;;;;;;;4.85;3.30;;;23.60;49.60;;;;;;5044382;28;20025;-46
2022/08/05 03:04:48;;;;;;;4.65;3.00;;;23.60;49.10;;;;;;5044753;28;20482;-46
2022/08/05 03:07:14;;;;;;;5.10;3.35;;;23.60;48.90;;;;;;5043261;28;20036;-46
2022/08/05 03:09:43;;;;;;;4.43;3.00;;;23.60;48.80;;;;;;5044602;28;20032;-46
2022/08/05 03:12:08;;;;;;;3.80;2.60;;;23.60;49.00;;;;;;5044128;28;20130;-46
2022/08/05 03:14:35;;;;;;;6.82;3.47;;;23.60;48.90;;;;;;5044656;28;20046;-46
2022/08/05 03:17:01;;;;;;;3.70;2.67;;;23.60;48.50;;;;;;5044679;28;20033;-46
2022/08/05 03:19:27;;;;;;;4.65;3.17;;;23.60;48.50;;;;;;5044946;28;20048;-46
2022/08/05 03:21:52;;;;;;;4.28;2.50;;;23.60;48.50;;;;;;5043396;28;20025;-46
2022/08/05 03:24:19;;;;;;;5.65;3.10;;;23.60;48.70;;;;;;5044394;28;20025;-46
2022/08/05 03:26:45;;;;;;;3.70;2.67;;;23.60;48.60;;;;;;5043968;28;20032;-46
2022/08/05 03:29:11;;;;;;;6.70;3.17;;;23.60;48.40;;;;;;5043520;28;20029;-46
2022/08/05 03:31:37;;;;;;;4.20;2.75;;;23.60;48.30;;;;;;5044207;28;20021;-46
2022/08/05 03:34:04;;;;;;;4.55;3.20;;;23.60;48.50;;;;;;5044520;28;20096;-46
2022/08/05 03:36:31;;;;;;;5.05;2.80;;;23.60;48.40;;;;;;5041751;28;20520;-46
2022/08/05 03:38:57;;;;;;;3.65;2.70;;;23.60;48.60;;;;;;5044230;28;20029;-46
2022/08/05 03:41:23;;;;;;;4.35;3.03;;;23.60;48.40;;;;;;5044519;28;20048;-46
2022/08/05 03:43:48;;;;;;;4.15;2.88;;;23.60;48.30;;;;;;5042817;28;20025;-46
2022/08/05 03:46:15;;;;;;;5.75;3.08;;;23.60;48.20;;;;;;5044005;28;20025;-46
2022/08/05 03:48:40;;;;;;;4.82;2.95;;;23.60;48.30;;;;;;5042445;28;20071;-46
2022/08/05 03:51:14;;;;;;;4.18;3.05;;;23.50;48.30;;;;;;5041104;28;20029;-46
2022/08/05 03:53:55;;;;;;;5.22;2.97;;;23.50;48.40;;;;;;5042379;28;20017;-46
2022/08/05 03:56:32;;;;;;;5.20;3.20;;;23.50;48.80;;;;;;5042774;28;20032;-46
2022/08/05 03:59:01;;;;;;;4.35;2.88;;;23.50;48.80;;;;;;5043195;28;20082;-46
2022/08/05 04:01:30;;;;;;;5.00;3.03;;;23.50;48.70;;;;;;5043327;28;20916;-47
2022/08/05 04:03:58;;;;;;;4.80;2.80;;;23.50;49.20;;;;;;5043885;28;20291;-46
2022/08/05 04:06:24;;;;;;;3.50;2.60;;;23.50;49.40;;;;;;5041958;28;20508;-46
2022/08/05 04:08:51;;;;;;;5.32;3.08;;;23.50;49.40;;;;;;5044681;28;20385;-46
2022/08/05 04:11:17;;;;;;;7.45;3.47;;;23.50;49.50;;;;;;5043562;28;20024;-46
2022/08/05 04:13:44;;;;;;;5.15;3.08;;;23.50;49.10;;;;;;5043961;28;20664;-46
2022/08/05 04:16:12;;;;;;;4.00;2.95;;;23.50;49.00;;;;;;5043470;28;20033;-46
2022/08/05 04:18:38;;;;;;;3.53;2.53;;;23.50;49.60;;;;;;5042211;28;20028;-46
2022/08/05 04:21:05;;;;;;;4.78;2.90;;;23.50;49.60;;;;;;5042314;28;20021;-46
2022/08/05 04:23:33;;;;;;;5.35;3.03;;;23.50;49.90;;;;;;5043701;28;20052;-46
2022/08/05 04:25:58;;;;;;;4.45;2.80;;;23.50;49.50;;;;;;5042031;28;20613;-46
2022/08/05 04:28:24;;;;;;;4.38;3.05;;;23.50;49.30;;;;;;5041172;28;20111;-46
2022/08/05 04:30:50;;;;;;;4.30;2.80;;;23.50;49.50;;;;;;5043277;28;20017;-46
2022/08/05 04:33:16;;;;;;;4.20;2.47;;;23.50;50.00;;;;;;5043649;28;20116;-46
2022/08/05 04:35:42;;;;;;;4.35;3.10;;;23.50;50.10;;;;;;5042620;28;20029;-46
2022/08/05 04:38:08;;;;;;;5.32;3.17;;;23.50;50.10;;;;;;5040585;28;20025;-46
2022/08/05 04:40:39;;;;;;;4.22;2.75;;;23.50;50.20;;;;;;5042969;28;20131;-46
2022/08/05 04:43:05;;;;;;;4.90;3.10;;;23.50;50.30;;;;;;5043349;28;20018;-46
2022/08/05 04:45:31;;;;;;;6.07;3.10;;;23.50;50.30;;;;;;5042451;28;20123;-46
2022/08/05 04:48:14;;;;;;;7.00;3.40;;;23.60;50.60;;;;;;5043040;28;20013;-46
2022/08/05 04:50:46;;;;;;;4.28;2.88;;;23.50;50.30;;;;;;5041125;28;20037;-46
2022/08/05 04:53:14;;;;;;;5.82;3.83;;;23.50;50.20;;;;;;5042344;28;20032;-46
2022/08/05 04:55:41;;;;;;;6.85;3.85;;;23.50;50.50;;;;;;5039709;28;20025;-46
2022/08/05 04:58:08;;;;;;;6.05;3.72;;;23.50;51.00;;;;;;5041419;28;20103;-46
2022/08/05 05:00:36;;;;;;;6.00;3.50;;;23.50;51.00;;;;;;5041351;28;20025;-46
2022/08/05 05:03:02;;;;;;;9.70;4.53;;;23.50;51.00;;;;;;5038086;28;20028;-46
2022/08/05 05:05:29;;;;;;;7.18;4.00;;;23.50;51.20;;;;;;5039564;28;20092;-46
2022/08/05 05:08:06;;;;;;;8.65;3.90;;;23.50;51.20;;;;;;5042327;28;20079;-46
2022/08/05 05:10:42;;;;;;;7.88;4.38;;;23.50;50.50;;;;;;5042466;28;20033;-46
2022/08/05 05:13:12;;;;;;;5.15;3.65;;;23.50;51.10;;;;;;5042301;28;20086;-47
2022/08/05 05:15:39;;;;;;;5.28;3.70;;;23.50;51.10;;;;;;5040801;28;20025;-46
2022/08/05 05:18:05;;;;;;;5.97;3.45;;;23.50;51.20;;;;;;5042851;28;20384;-46
2022/08/05 05:20:31;;;;;;;4.78;3.70;;;23.40;51.40;;;;;;5032061;28;20064;-46
2022/08/05 05:22:58;;;;;;;4.93;3.45;;;23.50;51.30;;;;;;5038417;28;20017;-47
2022/08/05 05:25:25;;;;;;;6.20;3.20;;;23.50;51.50;;;;;;5042136;28;20761;-46
2022/08/05 05:27:54;;;;;;;5.30;3.40;;;23.50;51.70;;;;;;5042323;28;20036;-46
2022/08/05 05:30:20;;;;;;;6.32;3.65;;;23.40;51.70;;;;;;5042712;28;20025;-46
2022/08/05 05:32:46;;;;;;;5.13;3.65;;;23.50;51.90;;;;;;5040784;28;20107;-46
2022/08/05 05:35:12;;;;;;;5.88;3.53;;;23.50;52.10;;;;;;5042250;28;20108;-46
2022/08/05 05:37:59;;;;;;;5.03;3.55;;;23.50;52.40;;;;;;5039608;28;20136;-46
2022/08/05 05:40:27;;;;;;;5.10;3.53;;;23.50;52.30;;;;;;5040440;28;20021;-47
2022/08/05 05:42:53;;;;;;;6.78;3.72;;;23.60;52.40;;;;;;5041861;28;20635;-47
2022/08/05 05:45:19;;;;;;;4.60;3.42;;;23.60;52.50;;;;;;5041917;28;20029;-46
2022/08/05 05:47:45;;;;;;;5.22;3.50;;;23.60;52.30;;;;;;5042280;28;20020;-46
2022/08/05 05:50:14;;;;;;;5.10;3.70;;;23.60;51.90;;;;;;5026160;28;20055;-46
2022/08/05 05:52:40;;;;;;;6.28;3.95;;;23.60;51.70;;;;;;5021922;28;20029;-46
2022/08/05 05:55:09;;;;;;;5.00;3.67;;;23.70;52.90;;;;;;5020536;28;20083;-46
2022/08/05 05:57:35;;;;;;;4.55;3.38;;;23.70;52.40;;;;;;5042192;28;20116;-46
2022/08/05 06:00:01;;;;;;;5.75;3.60;;;23.70;52.50;;;;;;5045119;28;20094;-46
2022/08/05 06:02:27;;;;;;;5.55;3.97;;;23.70;52.60;;;;;;5045690;28;20741;-46
2022/08/05 06:04:52;;;;;;;7.30;4.05;;;23.70;52.80;;;;;;5046481;28;20013;-46
2022/08/05 06:07:18;;;;;;;5.65;3.67;;;23.80;52.50;;;;;;5027822;28;20052;-46
2022/08/05 06:09:44;;;;;;;5.80;4.20;;;23.80;52.50;;;;;;5026498;28;20076;-46
2022/08/05 06:12:09;;;;;;;6.70;4.38;;;23.80;52.80;;;;;;5028235;28;20068;-46
2022/08/05 06:14:35;;;;;;;6.15;4.40;;;23.80;53.10;;;;;;5044158;28;20108;-46
2022/08/05 06:17:01;;;;;;;6.60;4.05;;;23.90;52.70;;;;;;5044479;28;20039;-46
2022/08/05 06:19:27;;;;;;;6.85;4.10;;;23.90;52.60;;;;;;5043725;28;20021;-46
2022/08/05 06:21:53;;;;;;;6.05;4.05;;;23.90;52.90;;;;;;5043482;28;20048;-46
2022/08/05 06:24:19;;;;;;;6.90;4.10;;;24.00;52.70;;;;;;5044404;28;20104;-46
2022/08/05 06:26:44;;;;;;;5.45;4.00;;;24.00;52.40;;;;;;5044186;28;20097;-46
2022/08/05 06:29:10;;;;;;;4.88;3.90;;;24.10;52.40;;;;;;5045060;28;20033;-46
2022/08/05 06:31:37;;;;;;;5.03;3.65;;;24.10;52.30;;;;;;5034218;28;20029;-46
2022/08/05 06:34:03;;;;;;;5.18;3.40;;;24.20;52.20;;;;;;5036358;28;20025;-46
2022/08/05 06:36:29;;;;;;;5.60;3.65;;;24.20;52.10;;;;;;5026468;28;20117;-45
2022/08/05 06:38:54;;;;;;;5.93;3.85;;;24.30;52.20;;;;;;5033700;28;20104;-46
2022/08/05 06:41:20;;;;;;;5.72;3.60;;;24.40;52.10;;;;;;5043546;28;20391;-46
2022/08/05 06:43:47;;;;;;;4.97;3.15;;;24.40;52.00;;;;;;5045355;28;20032;-45
2022/08/05 06:46:13;;;;;;;5.93;3.45;;;24.50;51.90;;;;;;5042857;28;20028;-46
2022/08/05 06:48:39;;;;;;;5.15;3.67;;;24.50;51.90;;;;;;5040570;28;20141;-46
2022/08/05 06:51:05;;;;;;;6.72;3.70;;;24.60;51.90;;;;;;5027444;28;20603;-47
2022/08/05 06:53:31;;;;;;;5.18;3.55;;;24.60;52.40;;;;;;5035167;28;20014;-46
2022/08/05 06:55:58;;;;;;;5.20;3.97;;;24.70;52.70;;;;;;5041377;28;20305;-47
2022/08/05 06:58:24;;;;;;;4.95;3.65;;;24.70;52.70;;;;;;5043996;28;20434;-47
2022/08/05 07:00:50;;;;;;;5.28;3.50;;;24.70;52.80;;;;;;5035930;28;20033;-47
2022/08/05 07:03:16;;;;;;;6.40;3.58;;;24.80;52.20;;;;;;5030702;28;20041;-46
2022/08/05 07:05:42;;;;;;;5.38;4.13;;;24.90;52.40;;;;;;5031672;28;20035;-46
2022/08/05 07:08:08;;;;;;;4.88;3.58;;;24.90;52.40;;;;;;5037479;28;20033;-47
2022/08/05 07:10:34;;;;;;;5.45;3.65;;;24.90;52.30;;;;;;5034930;28;20052;-47
2022/08/05 07:18:28;;;;;;;6.72;3.72;;;25.00;52.10;;;;;;5040733;28;20099;-49
2022/08/05 07:20:54;;;;;;;5.32;3.85;;;25.10;52.20;;;;;;5041699;28;20045;-48
2022/08/05 07:23:19;;;;;;;6.72;3.90;;;25.10;52.00;;;;;;5042202;28;20098;-48
2022/08/05 07:25:45;;;;;;;5.22;4.05;;;25.10;52.00;;;;;;5042951;28;20029;-48
2022/08/05 07:28:11;;;;;;;4.80;3.60;;;25.20;51.70;;;;;;5039338;28;20108;-48
2022/08/05 07:30:37;;;;;;;5.35;3.83;;;25.20;52.30;;;;;;5033837;28;20340;-47
2022/08/05 07:33:05;;;;;;;7.55;4.30;;;25.20;52.30;;;;;;5039812;28;20060;-45
2022/08/05 07:35:31;;;;;;;4.78;3.67;;;25.30;52.90;;;;;;5036074;28;20060;-45
2022/08/05 07:37:56;;;;;;;5.13;3.88;;;25.30;51.80;;;;;;5042520;28;20497;-45
2022/08/05 07:40:22;;;;;;;7.78;3.70;;;25.30;51.30;;;;;;5037591;28;20041;-47
2022/08/05 07:42:48;;;;;;;5.38;3.55;;;25.40;52.20;;;;;;5043389;28;20142;-47
2022/08/05 07:45:14;;;;;;;5.47;3.60;;;25.40;52.00;;;;;;5042402;28;20028;-47
2022/08/05 07:47:40;;;;;;;5.30;3.63;;;25.40;51.20;;;;;;5041653;28;20100;-46
2022/08/05 07:50:07;;;;;;;5.85;3.63;;;25.40;51.00;;;;;;5037965;28;20104;-46
2022/08/05 07:52:42;;;;;;;6.78;4.05;;;25.50;51.20;;;;;;5038865;28;20040;-46
2022/08/05 07:55:08;;;;;;;5.05;4.10;;;25.50;51.30;;;;;;5036116;28;20039;-46
2022/08/05 07:57:35;;;;;;;5.20;4.07;;;25.50;51.20;;;;;;5041126;28;20017;-46
2022/08/05 08:00:02;;;;;;;6.57;3.90;;;25.60;51.30;;;;;;5036111;28;20349;-47
2022/08/05 08:02:28;;;;;;;5.07;3.92;;;25.60;52.00;;;;;;5042213;28;20025;-46
2022/08/05 08:04:55;;;;;;;5.60;3.53;;;25.60;51.30;;;;;;5038338;28;20017;-46
2022/08/05 08:07:21;;;;;;;4.45;3.33;;;25.60;51.80;;;;;;5030046;28;20022;-47
2022/08/05 08:09:47;;;;;;;7.78;3.30;;;25.60;51.40;;;;;;5040958;28;20114;-47
2022/08/05 08:12:13;;;;;;;5.88;3.72;;;25.70;52.00;;;;;;5040307;28;20048;-46
2022/08/05 08:14:40;;;;;;;6.80;3.83;;;25.70;51.40;;;;;;5043111;28;20133;-47
2022/08/05 08:17:09;;;;;;;5.45;3.50;;;25.70;51.30;;;;;;5040464;28;20464;-46
2022/08/05 08:19:39;;;;;;;7.57;3.55;;;25.70;51.20;;;;;;5035519;28;20040;-46
2022/08/05 08:22:06;;;;;;;4.75;3.50;;;25.70;51.40;;;;;;5024869;28;20428;-47
2022/08/05 08:24:32;;;;;;;5.43;3.33;;;25.80;51.90;;;;;;5036638;28;20482;-46
2022/08/05 08:26:58;;;;;;;4.70;3.05;;;25.80;51.70;;;;;;5041642;28;20040;-47
2022/08/05 08:29:24;;;;;;;6.20;3.83;;;25.80;51.40;;;;;;5036593;28;20448;-47
2022/08/05 08:31:51;;;;;;;7.30;3.78;;;25.80;51.70;;;;;;5035384;28;20064;-46
2022/08/05 08:34:21;;;;;;;5.35;3.80;;;25.80;51.70;;;;;;5019060;28;20425;-47
2022/08/05 08:36:47;;;;;;;5.53;3.72;;;25.80;51.50;;;;;;5024256;28;20029;-48
2022/08/05 08:39:13;;;;;;;4.75;3.50;;;25.90;52.80;;;;;;5026361;28;20347;-48
2022/08/05 08:41:53;;;;;;;5.07;2.83;;;25.90;52.90;;;;;;5038972;28;20195;-47
2022/08/05 08:44:20;;;;;;;5.32;3.67;;;25.90;52.40;;;;;;5037892;28;20481;-47
2022/08/05 08:46:47;;;;;;;5.43;3.50;;;25.90;51.70;;;;;;5037404;28;20029;-47
2022/08/05 08:49:15;;;;;;;4.78;3.40;;;26.00;52.00;;;;;;5032882;28;20029;-47
2022/08/05 08:51:45;;;;;;;4.75;3.75;;;25.90;51.90;;;;;;5037739;28;20033;-48
2022/08/05 08:54:11;;;;;;;4.25;3.13;;;25.90;51.70;;;;;;5037856;28;20107;-48
2022/08/05 08:56:40;;;;;;;4.70;3.55;;;26.00;52.00;;;;;;5042020;28;20528;-48
2022/08/05 08:59:06;;;;;;;4.80;3.60;;;26.00;52.10;;;;;;5042230;28;20033;-48
2022/08/05 09:01:32;;;;;;;6.53;4.15;;;26.00;52.00;;;;;;5042456;28;20028;-49
2022/08/05 09:03:59;;;;;;;5.05;3.00;;;26.00;52.20;;;;;;5041867;28;20079;-47
2022/08/05 09:06:27;;;;;;;6.07;3.50;;;26.10;52.00;;;;;;5039377;28;20097;-49
2022/08/05 09:08:53;;;;;;;4.28;3.35;;;26.10;52.00;;;;;;5042824;28;20052;-47
2022/08/05 09:11:19;;;;;;;5.32;3.53;;;26.10;52.20;;;;;;5039316;28;20396;-47
2022/08/05 09:13:45;;;;;;;6.97;3.40;;;26.10;52.10;;;;;;5040527;28;20028;-48
2022/08/05 09:16:12;;;;;;;5.97;3.63;;;26.10;52.00;;;;;;5041068;28;20505;-47
2022/08/05 09:18:38;;;;;;;4.47;3.70;;;26.10;52.20;;;;;;5040055;28;20037;-47
2022/08/05 09:21:04;;;;;;;4.78;3.70;;;26.20;52.10;;;;;;5040887;28;20029;-49
2022/08/05 09:23:30;;;;;;;4.18;3.20;;;26.20;51.80;;;;;;5041709;28;20675;-47
2022/08/05 09:26:08;;;;;;;4.30;3.30;;;26.20;51.90;;;;;;5039709;28;20064;-47
2022/08/05 09:28:36;;;;;;;5.03;3.65;;;26.30;51.70;;;;;;5039861;28;20027;-47
2022/08/05 09:31:11;;;;;;;4.63;3.50;;;26.30;51.80;;;;;;5041508;28;20047;-47
2022/08/05 09:33:48;;;;;;;4.75;3.78;;;26.30;52.00;;;;;;5041129;28;20029;-47
2022/08/05 09:36:14;;;;;;;4.88;3.67;;;26.30;52.00;;;;;;5034844;28;20105;-48
2022/08/05 09:38:55;;;;;;;5.18;3.60;;;26.30;51.10;;;;;;5042018;28;20048;-48
2022/08/05 09:41:21;;;;;;;6.50;4.07;;;26.30;51.80;;;;;;5037630;28;20029;-48
2022/08/05 09:43:46;;;;;;;4.30;3.38;;;26.30;52.20;;;;;;5040669;28;20107;-47
2022/08/05 09:46:29;;;;;;;4.43;3.08;;;26.40;51.30;;;;;;5041733;28;20036;-48
2022/08/05 09:49:03;;;;;;;5.63;3.45;;;26.40;51.80;;;;;;5038051;28;20324;-48
2022/08/05 09:51:34;;;;;;;6.65;3.25;;;26.40;52.20;;;;;;5037991;28;20028;-46
2022/08/05 09:54:00;;;;;;;4.30;3.35;;;26.40;52.10;;;;;;5040682;28;20401;-46
2022/08/05 09:56:33;;;;;;;4.63;3.35;;;26.50;52.10;;;;;;5034980;28;20083;-46
2022/08/05 09:59:07;;;;;;;4.85;3.80;;;26.40;51.10;;;;;;5033125;28;20504;-46
2022/08/05 10:01:35;;;;;;;5.13;3.50;;;26.40;52.20;;;;;;5037909;28;20187;-46
2022/08/05 10:04:12;;;;;;;7.50;3.38;;;26.50;51.00;;;;;;5040811;28;20649;-46
2022/08/05 10:06:51;;;;;;;5.38;3.72;;;26.50;51.90;;;;;;5041037;28;20032;-46
2022/08/05 10:09:20;;;;;;;5.30;3.78;;;26.50;52.10;;;;;;5036561;28;20082;-46
2022/08/05 10:11:46;;;;;;;5.95;3.75;;;26.60;51.90;;;;;;5040622;28;20034;-47
2022/08/05 10:14:27;;;;;;;4.63;3.85;;;26.60;52.30;;;;;;5040825;28;20040;-46
2022/08/05 10:16:57;;;;;;;5.28;3.72;;;26.60;52.10;;;;;;5038299;28;20037;-45
2022/08/05 10:19:26;;;;;;;4.75;3.58;;;26.60;51.80;;;;;;5040865;28;20656;-45
2022/08/05 10:21:52;;;;;;;5.78;4.57;;;26.60;51.60;;;;;;5038871;28;20108;-48
2022/08/05 10:24:19;;;;;;;5.65;4.00;;;26.60;51.70;;;;;;5040906;28;20108;-47
2022/08/05 10:26:48;;;;;;;4.90;4.15;;;26.60;51.70;;;;;;5041266;28;20044;-47
2022/08/05 10:29:14;;;;;;;5.93;4.88;;;26.60;51.40;;;;;;5040991;28;20083;-45
2022/08/05 10:31:40;;;;;;;7.35;4.95;;;26.60;52.00;;;;;;5041453;28;20040;-45
2022/08/05 10:34:08;;;;;;;6.35;4.80;;;26.70;53.00;;;;;;5040635;28;20463;-45
2022/08/05 10:36:36;;;;;;;7.25;4.35;;;26.70;52.50;;;;;;5040774;28;20036;-45
2022/08/05 10:39:07;;;;;;;7.80;5.55;;;26.70;52.40;;;;;;5041604;28;20552;-46
2022/08/05 10:41:42;;;;;;;7.50;4.40;;;26.80;53.20;;;;;;5032990;28;20029;-45
2022/08/05 10:44:14;;;;;;;5.60;4.63;;;26.80;52.50;;;;;;5036453;28;20215;-46
2022/08/05 10:46:46;;;;;;;;;;;26.80;53.20;;;;;;5033089;28;20416;-46
2022/08/05 10:49:12;;;;;;;8.07;5.18;;;26.80;53.10;;;;;;5036789;28;20003;-45
2022/08/05 10:51:47;;;;;;;7.60;5.00;;;26.80;52.90;;;;;;5014846;28;20026;-46
2022/08/05 10:54:14;;;;;;;5.60;4.70;;;26.90;52.40;;;;;;5036252;28;20025;-46
2022/08/05 10:56:52;;;;;;;7.82;4.57;;;26.90;52.60;;;;;;5032635;28;20025;-46
2022/08/05 10:59:26;;;;;;;5.93;4.38;;;26.90;53.20;;;;;;5035442;28;20037;-45
2022/08/05 11:02:09;;;;;;;5.45;4.45;;;27.10;53.80;;;;;;5042316;28;20025;-46
2022/08/05 11:04:46;;;;;;;5.40;4.15;;;27.10;53.10;;;;;;5039794;28;20133;-47
2022/08/05 11:07:17;;;;;;;6.88;4.78;;;27.20;53.10;;;;;;5042784;28;20021;-45
2022/08/05 11:09:50;;;;;;;6.93;4.43;;;27.20;52.70;;;;;;5037118;28;20024;-46
2022/08/05 11:12:38;;;;;;;6.60;4.60;;;27.20;52.30;;;;;;5039323;28;20033;-45
2022/08/05 11:15:29;;;;;;;4.65;4.05;;;27.20;52.20;;;;;;5043216;28;20033;-46
2022/08/05 11:18:24;;;;;;;4.47;4.03;;;27.20;52.00;;;;;;5043181;28;20553;-45
2022/08/05 11:20:50;;;;;;;5.07;4.13;;;27.20;51.50;;;;;;5042375;28;20021;-46
2022/08/05 11:23:28;;;;;;;5.22;4.10;;;27.20;51.00;;;;;;5042919;28;20044;-46
2022/08/05 11:26:20;;;;;;;5.40;4.57;;;27.20;51.30;;;;;;5043142;28;20033;-45
2022/08/05 11:28:50;;;;;;;5.45;4.38;;;27.20;52.40;;;;;;5042664;28;20063;-46
2022/08/05 11:31:16;;;;;;;4.38;3.90;;;27.20;51.90;;;;;;5042776;28;20182;-47
2022/08/05 11:33:45;;;;;;;6.28;4.20;;;27.20;51.90;;;;;;5042357;28;20500;-46
2022/08/05 11:36:12;;;;;;;6.13;4.65;;;27.20;52.30;;;;;;5041482;28;20017;-46
2022/08/05 11:38:41;;;;;;;5.03;4.07;;;27.30;51.90;;;;;;5042689;28;20025;-46
2022/08/05 11:41:14;;;;;;;5.88;4.32;;;27.30;53.10;;;;;;5042398;28;20029;-46
2022/08/05 11:43:43;;;;;;;5.70;4.18;;;27.30;52.80;;;;;;5041179;28;20032;-45
2022/08/05 11:46:09;;;;;;;6.68;4.70;;;27.40;52.90;;;;;;5042267;28;20094;-45
2022/08/05 11:48:40;;;;;;;5.07;4.28;;;27.40;52.80;;;;;;5041710;28;20112;-47
2022/08/05 11:51:06;;;;;;;5.28;4.13;;;27.50;53.10;;;;;;5040995;28;20306;-47
2022/08/05 11:53:33;;;;;;;6.32;4.63;;;27.50;53.90;;;;;;5043149;28;20574;-47
2022/08/05 11:56:00;;;;;;;6.15;4.68;;;27.60;53.00;;;;;;5027017;28;20025;-45
2022/08/05 11:58:39;;;;;;;5.68;4.65;;;27.60;53.50;;;;;;5041341;28;20682;-46
2022/08/05 12:01:10;;;;;;;6.47;4.50;;;27.70;54.50;;;;;;5037802;28;20497;-48
2022/08/05 12:03:48;;;;;;;5.60;4.28;;;27.80;54.30;;;;;;5035984;28;20044;-46
2022/08/05 12:06:16;;;;;;;5.40;4.30;;;27.90;53.30;;;;;;5038844;28;20386;-46
2022/08/05 12:08:53;;;;;;;6.68;4.75;;;27.90;53.80;;;;;;5024337;28;20033;-47
2022/08/05 12:11:21;;;;;;;6.90;4.85;;;27.90;54.20;;;;;;5037688;28;20033;-48
2022/08/05 12:13:59;;;;;;;7.63;4.30;;;28.10;52.60;;;;;;5041879;28;20682;-48
2022/08/05 12:16:30;;;;;;;5.85;4.32;;;28.20;53.50;;;;;;5041458;28;20386;-48
2022/08/05 12:18:56;;;;;;;4.53;3.90;;;28.20;54.60;;;;;;5030457;28;20098;-48
2022/08/05 12:21:22;;;;;;;4.43;4.00;;;28.30;53.20;;;;;;5036983;28;20078;-48
2022/08/05 12:23:56;;;;;;;4.68;4.15;;;28.40;53.30;;;;;;5040407;28;20029;-49
2022/08/05 12:26:22;;;;;;;6.03;3.95;;;28.40;54.30;;;;;;5038652;28;20060;-50
2022/08/05 12:28:48;;;;;;;5.32;4.43;;;28.40;55.10;;;;;;5038529;28;20638;-49
2022/08/05 12:31:15;;;;;;;4.90;4.00;;;28.50;53.90;;;;;;5040380;28;20090;-49
2022/08/05 12:33:42;;;;;;;4.22;3.65;;;28.60;51.10;;;;;;5040653;28;20080;-48
2022/08/05 12:36:08;;;;;;;4.28;3.22;;;28.70;50.30;;;;;;5041068;28;20039;-49
2022/08/05 12:38:36;;;;;;;4.28;3.30;;;28.70;49.00;;;;;;5040607;28;20013;-49
2022/08/05 12:41:05;;;;;;;4.82;3.35;;;28.80;49.90;;;;;;5040002;28;20615;-48
2022/08/05 12:43:31;;;;;;;5.05;3.10;;;28.80;46.00;;;;;;5040386;28;20029;-47
2022/08/05 12:45:56;;;;;;;3.60;2.70;;;28.90;45.80;;;;;;5040242;28;20060;-49
2022/08/05 12:48:22;;;;;;;4.00;2.28;;;28.90;45.90;;;;;;5040871;28;20033;-48
2022/08/05 12:51:13;;;;;;;3.28;2.42;;;29.00;44.20;;;;;;5040731;28;20664;-48
2022/08/05 12:53:44;;;;;;;4.03;2.45;;;29.20;44.50;;;;;;5038970;28;20726;-48
2022/08/05 12:56:23;;;;;;;4.22;2.33;;;29.20;41.50;;;;;;5041381;28;20032;-47
2022/08/05 12:59:20;;;;;;;3.05;2.25;;;29.30;42.00;;;;;;5035475;28;20044;-48
2022/08/05 13:02:06;;;;;;;3.50;2.78;;;29.30;40.70;;;;;;5041487;28;20025;-48